Time;durP1;ratioP1;P1;durP2;ratioP2;P2;SDS_P1;SDS_P2;PMS_P1;PMS_P2;Temp;Humidity;BMP_temperature;BMP_pressure;BME280_temperature;BME280_humidity;BME280_pressure;Samples;Min_cycle;Max_cycle;Signal;HPM_P1;HPM_P2
2022/11/10 00:08:09;;;;;;;14.40;9.82;;;;;;;21.61;61.20;100591.81;20996917;28;20046;-77
2022/11/10 00:18:10;;;;;;;17.73;10.60;;;;;;;21.61;61.36;100601.53;21002333;28;20040;-76
2022/11/10 00:28:10;;;;;;;15.32;10.00;;;;;;;21.57;61.19;100614.09;21011120;28;20051;-75
2022/11/10 00:38:11;;;;;;;17.25;10.00;;;;;;;21.55;61.30;100601.00;21011806;28;20115;-76
2022/11/10 00:48:11;;;;;;;16.38;9.90;;;;;;;21.57;61.17;100616.75;21019988;28;20040;-77
2022/11/10 00:58:11;;;;;;;16.95;10.23;;;;;;;21.55;61.26;100610.72;21014130;28;20058;-76
2022/11/10 01:08:12;;;;;;;17.08;9.93;;;;;;;21.54;61.30;100606.38;21011211;28;20086;-77
2022/11/10 01:18:12;;;;;;;17.52;10.10;;;;;;;21.53;61.44;100602.06;21005332;28;20055;-75
2022/11/10 01:28:13;;;;;;;16.45;10.25;;;;;;;21.55;61.06;100610.72;21004520;28;20054;-77
2022/11/10 01:38:19;;;;;;;16.77;10.90;;;;;;;21.52;61.33;100606.50;20996504;28;20035;-76
2022/11/10 01:48:32;;;;;;;17.90;10.32;;;;;;;21.51;61.30;100607.47;20995541;28;20039;-76
2022/11/10 01:58:38;;;;;;;16.88;10.20;;;;;;;21.49;61.31;100603.28;21002382;28;20047;-76
2022/11/10 02:08:41;;;;;;;17.20;10.15;;;;;;;21.46;61.44;100609.63;21006880;28;20085;-76
2022/11/10 02:18:41;;;;;;;15.80;9.82;;;;;;;21.47;61.37;100615.72;20988632;27;20044;-76
2022/11/10 02:28:42;;;;;;;17.98;9.95;;;;;;;21.43;61.22;100623.00;20950412;28;20040;-76
2022/11/10 02:38:42;;;;;;;15.85;10.05;;;;;;;21.45;60.92;100629.00;20918329;28;20047;-76
2022/11/10 02:48:42;;;;;;;17.73;10.35;;;;;;;21.43;61.38;100641.44;20923629;28;20417;-76
2022/11/10 02:58:43;;;;;;;17.73;9.77;;;;;;;21.43;61.15;100644.06;20976996;28;20044;-77
2022/11/10 03:08:43;;;;;;;16.25;10.23;;;;;;;21.41;61.22;100662.63;20983979;28;20045;-77
2022/11/10 03:18:44;;;;;;;16.75;10.13;;;;;;;21.39;61.16;100669.81;21000440;28;20044;-77
2022/11/10 03:28:44;;;;;;;18.98;10.55;;;;;;;21.38;60.98;100672.56;21003498;28;20036;-76
2022/11/10 03:38:45;;;;;;;21.05;11.00;;;;;;;21.39;60.90;100677.72;21009614;28;20052;-76
2022/11/10 03:48:45;;;;;;;19.25;9.98;;;;;;;21.37;60.71;100677.00;21007558;27;20036;-76
2022/11/10 03:58:45;;;;;;;17.60;10.00;;;;;;;21.39;61.13;100684.78;21015546;27;20056;-76
2022/11/10 04:08:58;;;;;;;17.02;10.88;;;;;;;21.37;60.80;100703.34;21003514;28;20832;-76
2022/11/10 04:18:59;;;;;;;15.57;9.93;;;;;;;21.38;61.12;100706.81;21025766;27;20036;-76
2022/11/10 04:29:02;;;;;;;15.60;8.93;;;;;;;21.32;61.13;100712.53;21015780;28;20071;-77
2022/11/10 04:39:03;;;;;;;16.77;9.93;;;;;;;21.33;60.92;100719.47;21010665;28;20135;-78
2022/11/10 04:49:06;;;;;;;14.25;9.50;;;;;;;21.31;61.01;100713.47;21020431;28;20044;-78
2022/11/10 04:59:06;;;;;;;13.73;8.70;;;;;;;21.37;60.93;100727.06;21001797;28;20048;-75
2022/11/10 05:09:07;;;;;;;14.35;9.05;;;;;;;21.44;61.22;100753.78;20988209;28;20292;-78
2022/11/10 05:19:13;;;;;;;15.77;9.32;;;;;;;21.52;61.83;100761.09;21001903;28;20506;-77
2022/11/10 05:29:13;;;;;;;16.38;8.80;;;;;;;21.62;62.74;100758.66;20985753;28;20053;-76
2022/11/10 05:39:14;;;;;;;16.10;8.65;;;;;;;21.71;62.16;100779.91;20990080;28;20064;-75
2022/11/10 05:49:14;;;;;;;18.35;8.93;;;;;;;21.77;61.95;100797.09;20962350;28;20410;-76
2022/11/10 05:59:14;;;;;;;19.58;9.73;;;;;;;21.79;61.34;100805.72;20966076;28;20435;-74
2022/11/10 06:09:15;;;;;;;20.20;10.32;;;;;;;21.83;60.52;100815.09;20988856;28;20037;-75
2022/11/10 06:19:15;;;;;;;17.20;10.13;;;;;;;21.85;60.57;100841.31;20999103;28;20449;-75
2022/11/10 06:29:16;;;;;;;18.05;9.65;;;;;;;21.89;60.64;100858.63;20972084;28;20185;-74
2022/11/10 06:39:16;;;;;;;16.77;9.02;;;;;;;21.97;60.48;100868.59;20977869;28;20048;-76
2022/11/10 06:49:19;;;;;;;15.13;8.63;;;;;;;22.07;60.56;100880.19;20939242;28;20533;-76
2022/11/10 06:59:19;;;;;;;22.27;9.15;;;;;;;22.10;58.80;100892.28;20915049;28;20045;-74
2022/11/10 07:09:20;;;;;;;15.23;8.98;;;;;;;22.14;59.00;100905.16;20997009;28;20098;-74
2022/11/10 07:19:21;;;;;;;16.58;8.20;;;;;;;22.18;59.65;100916.28;21017698;28;20045;-74
2022/11/10 07:29:21;;;;;;;13.35;7.60;;;;;;;22.20;59.72;100935.50;21002646;28;20127;-76
2022/11/10 07:39:23;;;;;;;13.13;8.43;;;;;;;22.19;59.62;100945.22;21031967;28;20040;-76
2022/11/10 07:49:23;;;;;;;14.82;7.82;;;;;;;22.20;59.49;100953.94;21015387;28;20047;-76
2022/11/10 07:59:23;;;;;;;14.90;8.23;;;;;;;22.21;59.36;100953.84;20983565;28;20406;-77
2022/11/10 08:09:24;;;;;;;13.02;7.65;;;;;;;22.23;59.48;100965.13;20989164;28;20040;-78
2022/11/10 08:19:24;;;;;;;11.50;8.10;;;;;;;22.23;59.11;100982.75;20989291;28;20139;-78
2022/11/10 08:29:25;;;;;;;11.80;7.90;;;;;;;22.25;59.36;100994.03;21011843;27;20040;-78
2022/11/10 08:39:25;;;;;;;12.73;7.88;;;;;;;22.27;59.43;101004.47;21004010;28;20044;-78
2022/11/10 08:49:25;;;;;;;11.90;7.75;;;;;;;22.28;59.41;101027.28;20997369;28;20037;-77
2022/11/10 08:59:26;;;;;;;12.15;7.70;;;;;;;22.29;59.02;101037.72;20991367;28;20426;-76
2022/11/10 09:09:26;;;;;;;13.18;7.35;;;;;;;22.29;59.17;101045.63;20992840;28;20041;-75
2022/11/10 09:19:27;;;;;;;10.93;7.25;;;;;;;22.30;58.98;101059.66;20997561;28;20044;-75
2022/11/10 09:29:27;;;;;;;13.38;7.75;;;;;;;22.30;59.06;101070.19;21009008;28;20040;-78
2022/11/10 09:39:28;;;;;;;11.75;7.93;;;;;;;22.31;58.81;101078.00;21017196;27;20106;-79
2022/11/10 09:49:41;;;;;;;11.13;6.93;;;;;;;22.30;58.75;101080.75;20978835;28;20080;-76
2022/11/10 09:59:42;;;;;;;10.95;6.82;;;;;;;22.28;58.88;101078.25;20905595;28;20055;-77
2022/11/10 10:09:52;;;;;;;11.38;7.13;;;;;;;22.30;58.44;101078.97;20979201;28;20051;-76
2022/11/10 10:20:21;;;;;;;23.23;8.55;;;;;;;22.35;58.33;101095.31;21012635;28;20419;-77
2022/11/10 10:30:21;;;;;;;24.30;13.85;;;;;;;21.88;49.83;101110.03;20989745;28;20128;-78
2022/11/10 10:40:23;;;;;;;22.85;12.98;;;;;;;21.87;52.99;101096.03;20985566;28;20051;-81
2022/11/10 10:50:26;;;;;;;21.97;13.03;;;;;;;21.95;53.16;101107.81;20978954;28;20864;-82
2022/11/10 11:00:28;;;;;;;;;;;;;;;22.03;54.78;101123.94;20986501;28;20123;-81
2022/11/10 11:10:33;;;;;;;21.83;10.35;;;;;;;22.04;55.32;101120.38;20980297;28;19932;-79
2022/11/10 11:20:48;;;;;;;20.10;10.32;;;;;;;22.02;56.40;101117.84;20983065;28;20041;-80
2022/11/10 11:31:29;;;;;;;15.65;9.52;;;;;;;22.04;56.42;101131.75;21007516;28;20040;-80
2022/11/10 11:41:41;;;;;;;17.75;10.45;;;;;;;22.00;56.38;101159.28;20879830;28;20444;-81
2022/11/10 11:52:25;;;;;;;15.50;9.37;;;;;;;22.07;56.65;101155.28;20989660;28;20032;-81
2022/11/10 12:02:49;;;;;;;15.80;9.32;;;;;;;22.01;56.67;101163.63;20999727;28;20040;-82
2022/11/10 12:13:18;;;;;;;15.18;9.10;;;;;;;22.07;57.09;101173.75;21009929;28;20529;-82
2022/11/10 12:23:46;;;;;;;17.33;9.20;;;;;;;22.03;57.53;101177.56;21009678;28;20054;-82
2022/11/10 12:34:09;;;;;;;17.48;10.30;;;;;;;22.04;57.91;101181.84;21007270;28;20113;-81
2022/11/10 12:44:38;;;;;;;16.30;9.55;;;;;;;21.99;57.88;101196.31;20994706;28;20336;-81
2022/11/10 12:54:41;;;;;;;13.85;8.75;;;;;;;21.99;58.01;101212.97;20988622;28;20105;-81
2022/11/10 13:04:41;;;;;;;16.88;8.90;;;;;;;22.04;57.97;101216.13;20993145;28;20051;-83
2022/11/10 13:14:43;;;;;;;14.48;8.80;;;;;;;21.99;58.02;101205.06;20990065;28;20051;-79
2022/11/10 13:24:45;;;;;;;13.67;8.50;;;;;;;22.04;57.71;101213.50;20993942;28;20156;-79
2022/11/10 13:34:50;;;;;;;16.60;9.23;;;;;;;22.04;57.36;101217.94;20999516;28;20067;-80
2022/11/10 13:44:52;;;;;;;16.23;9.48;;;;;;;22.05;57.41;101228.38;21007614;28;20071;-80
2022/11/10 13:55:04;;;;;;;15.55;9.60;;;;;;;22.04;57.18;101236.41;20994850;28;20041;-81
2022/11/10 14:05:07;;;;;;;15.77;9.47;;;;;;;22.05;57.35;101238.09;20991993;28;20063;-80
2022/11/10 14:15:19;;;;;;;19.60;10.15;;;;;;;22.03;58.07;101254.03;20994306;28;20047;-80
2022/11/10 14:25:33;;;;;;;15.65;9.93;;;;;;;22.05;57.40;101267.13;21005947;28;20036;-77
2022/11/10 14:35:56;;;;;;;16.67;9.95;;;;;;;22.03;57.47;101267.22;21000414;28;20040;-80
2022/11/10 14:45:57;;;;;;;24.55;14.20;;;;;;;21.64;52.81;101276.84;20995361;28;20052;-80
2022/11/10 14:56:01;;;;;;;25.55;12.65;;;;;;;21.82;55.41;101290.56;20995484;28;20050;-77
2022/11/10 15:06:08;;;;;;;39.30;12.60;;;;;;;21.88;55.37;101294.59;20982006;28;20052;-76
2022/11/10 15:16:28;;;;;;;33.80;11.80;;;;;;;21.89;56.03;101306.84;20986208;28;20095;-76
2022/11/10 15:26:37;;;;;;;29.25;10.80;;;;;;;21.89;56.76;101317.41;20958703;28;20064;-85
2022/11/10 15:36:40;;;;;;;26.52;10.70;;;;;;;21.95;57.88;101326.66;20996985;28;20033;-79
2022/11/10 15:46:41;;;;;;;25.15;11.07;;;;;;;22.00;58.68;101335.97;21013851;28;20064;-81
2022/11/10 15:56:46;;;;;;;21.13;9.80;;;;;;;22.04;59.58;101358.56;20998709;28;20143;-81
2022/11/10 16:06:46;;;;;;;22.48;10.50;;;;;;;22.07;59.80;101365.44;21004845;28;20050;-81
2022/11/10 16:16:46;;;;;;;17.02;9.65;;;;;;;22.11;60.20;101374.84;20992946;28;20055;-84
2022/11/10 16:26:48;;;;;;;19.67;9.30;;;;;;;22.16;60.45;101390.38;21006525;28;20037;-80
2022/11/10 16:36:48;;;;;;;18.13;9.70;;;;;;;22.18;60.54;101393.72;20998787;28;20078;-79
2022/11/10 16:46:56;;;;;;;21.92;9.93;;;;;;;22.26;60.83;101415.19;21007705;28;20041;-80
2022/11/10 16:56:57;;;;;;;20.55;10.10;;;;;;;22.30;59.92;101419.34;21006052;28;20065;-81
2022/11/10 17:06:57;;;;;;;16.50;9.00;;;;;;;22.33;59.70;101440.22;21000274;28;20048;-83
2022/11/10 17:16:58;;;;;;;18.83;9.15;;;;;;;22.37;59.65;101457.56;21009249;28;20044;-83
2022/11/10 17:26:58;;;;;;;21.58;9.70;;;;;;;22.43;60.58;101484.53;21006455;28;20055;-85
2022/11/10 17:36:59;;;;;;;19.10;9.10;;;;;;;22.46;60.31;101489.59;20997203;28;20051;-84
2022/11/10 17:46:59;;;;;;;16.95;8.93;;;;;;;22.51;59.94;101501.53;21015184;28;20074;-84
2022/11/10 17:56:59;;;;;;;30.55;12.45;;;;;;;22.50;57.17;101517.50;21025663;28;20139;-81
2022/11/10 18:07:00;;;;;;;24.50;12.27;;;;;;;22.44;55.03;101531.91;21015984;28;20113;-78
2022/11/10 18:17:00;;;;;;;27.17;12.25;;;;;;;22.44;54.25;101528.44;20990846;28;20040;-80
2022/11/10 18:27:01;;;;;;;27.75;12.43;;;;;;;22.36;52.23;101526.25;21006297;28;20036;-82
2022/11/10 18:37:01;;;;;;;25.20;11.63;;;;;;;22.34;52.25;101552.75;21009568;28;20039;-82
2022/11/10 18:47:06;;;;;;;21.02;11.73;;;;;;;22.32;52.03;101573.09;20992082;28;20157;-79
2022/11/10 18:57:10;;;;;;;17.77;10.63;;;;;;;22.32;53.33;101582.81;20991804;28;20044;-84
2022/11/10 19:07:11;;;;;;;26.42;11.82;;;;;;;22.25;54.08;101603.44;20982130;28;20121;-85
2022/11/10 19:17:11;;;;;;;18.77;9.85;;;;;;;22.17;55.08;101608.38;21000373;28;20372;-86
2022/11/10 19:27:12;;;;;;;23.70;10.50;;;;;;;22.14;55.96;101622.63;20999092;28;20115;-88
2022/11/10 19:37:13;;;;;;;18.98;9.45;;;;;;;22.10;57.28;101638.72;20981546;28;20523;-83
2022/11/10 19:47:13;;;;;;;21.33;10.70;;;;;;;22.13;58.61;101641.16;20988365;28;20041;-85
2022/11/10 19:57:15;;;;;;;23.00;10.48;;;;;;;22.12;59.08;101665.84;20985159;28;20044;-78
2022/11/10 20:17:34;;;;;;;23.08;10.60;;;;;;;22.05;59.02;101670.66;20995980;28;20410;-76
2022/11/10 20:27:34;;;;;;;21.00;10.52;;;;;;;21.88;57.12;101669.03;20997445;28;20051;-76
2022/11/10 20:37:35;;;;;;;19.85;11.20;;;;;;;21.91;57.40;101696.06;21017332;28;20536;-76
2022/11/10 20:47:36;;;;;;;17.38;9.88;;;;;;;21.89;57.74;101708.50;21018845;28;20558;-76
2022/11/10 20:57:36;;;;;;;17.48;10.35;;;;;;;21.89;57.64;101716.41;21003491;28;20043;-76
2022/11/10 21:07:37;;;;;;;18.35;10.05;;;;;;;21.86;58.06;101728.91;21013674;28;20055;-77
2022/11/10 21:17:38;;;;;;;14.73;8.95;;;;;;;21.85;58.25;101724.56;21010977;28;20056;-77
2022/11/10 21:27:38;;;;;;;15.25;9.25;;;;;;;21.84;58.14;101725.53;21009420;28;20086;-77
2022/11/10 21:37:39;;;;;;;13.98;8.85;;;;;;;21.82;58.47;101716.88;21000322;28;20047;-77
2022/11/10 21:47:39;;;;;;;14.25;8.45;;;;;;;21.82;59.03;101740.59;21004517;28;20499;-76
2022/11/10 21:57:39;;;;;;;13.10;8.13;;;;;;;21.79;59.13;101748.66;21001974;27;20094;-76
2022/11/10 22:07:40;;;;;;;13.48;8.07;;;;;;;21.79;59.35;101760.09;20985816;28;20405;-76
2022/11/10 22:28:09;;;;;;;12.70;8.40;;;;;;;21.76;59.29;101778.69;20996660;28;20414;-77
2022/11/10 22:38:10;;;;;;;12.88;8.40;;;;;;;;;;20999862;28;20097;-76
2022/11/10 22:48:31;;;;;;;14.23;8.30;;;;;;;21.71;59.46;101763.13;20987504;28;20036;-76
2022/11/10 22:58:31;;;;;;;11.98;8.27;;;;;;;21.71;59.50;101744.69;20997032;28;20044;-77
2022/11/10 23:08:37;;;;;;;11.32;7.88;;;;;;;21.70;59.09;101753.56;20987939;28;20080;-76
2022/11/10 23:18:40;;;;;;;13.52;7.93;;;;;;;21.69;59.04;101746.59;21001632;28;20109;-78
2022/11/10 23:28:42;;;;;;;11.68;7.43;;;;;;;21.68;59.37;101744.88;20989283;28;20048;-75
2022/11/10 23:38:43;;;;;;;11.93;7.82;;;;;;;21.67;59.23;101756.38;20998370;28;20082;-76
2022/11/10 23:48:43;;;;;;;9.57;7.03;;;;;;;21.65;59.35;101758.22;20999314;28;20040;-77
2022/11/10 23:58:44;;;;;;;10.32;7.18;;;;;;;21.65;59.11;101774.03;21010125;28;20047;-77
